Lancelin, Western Australia

8:53 AM WST on August 21, 2014 (GMT +0800)
Pearce (Military) | Change Station
CLOSE
Current Station
Airport
Location: Bullsbrook Pearce,
Elevation: 148 ft
Nearby Weather Stations

Elev 148 ft 31.67 °S, 116.02 °E | Updated 53 minutes ago

Light Rain Showers
Light Showers Rain
61 °F
Feels Like 61 °F
N
8
Wind Variable Wind from NNW

Today
High -- | Low -- °F
--% Chance of Precip.
Yesterday
High -- | Low -- °F
Precip. -- in
6:47 AM 5:56 PM
Waning Crescent, 18% visible
Pressure 29.86 in
Visibility 6.2 miles
Clouds Few 1000 ft
Scattered Clouds 1600 ft
Mostly Cloudy 2100 ft
Dew Point 59 °F
Humidity 94%
Rainfall 0.00 in
Snow Depth Not available.
UV 0 out of 12
Pollen Not available.
Air Quality Not available.
Flu Activity Not available.
SPECI YPEA 210000Z 33007KT 9999 -SHRA FEW010 SCT016 BKN021 16/15 Q1011 RERA FM0040 32012KT 9999 -SHRA BKN025

More Conditions Fewer Conditions

Pressure 29.86 in
Visibility 6.2 miles
Clouds Few 1000 ft
Scattered Clouds 1600 ft
Mostly Cloudy 2100 ft
Dew Point 59 °F
Humidity 94%
Rainfall 0.00 in
Snow Depth Not available.
UV 0 out of 12
Pollen Not available.
Air Quality Not available.
Flu Activity Not available.
SPECI YPEA 210000Z 33007KT 9999 -SHRA FEW010 SCT016 BKN021 16/15 Q1011 RERA FM0040 32012KT 9999 -SHRA BKN025

More Conditions Fewer Conditions

10-Day Weather Forecast

Almanac

Astronomy

Aug. 21, 2014 Rise Set
Actual Time 6:47 AM WST 5:56 PM WST
Civil Twilight 6:23 AM WST 6:21 PM WST
Nautical Twilight 5:54 AM WST 6:49 PM WST
Astronomical Twilight 5:26 AM WST 7:17 PM WST
Moon 3:31 AM WST 2:20 PM WST
Length of Visible Light 11h 57m
Length of Day
11h 08m
Tomorrow will be 1m 40s longer.
Waning Crescent, 18% of the Moon is Illuminated
Aug 20
Waning Crescent
Aug 25
New
Sep 2
First Quarter
Sep 8
Full
Sep 15
Last Quarter

Yesterday's Extremes

Country Highs Country Lows

Community

WunderPhotos

Upload Photos

1,745,823 photos uploaded!

WunderBlogs® & News

Nearby

Snow Depth

Not available.

Earthquake Activity

City Distance Mag. Time & Date
No recent earthquake activity has been reported nearby.
Minimum magnitude displayed is 2.5.

Coastal Water Temperatures

Place Temperature
No Stations Reporting

Nearby Weather Stations